sensor_id;sensor_type;location;lat;lon;timestamp;temperature;humidity
8537;DHT22;4306;50.210;10.628;2023-07-13T00:02:21;20.80;89.20
8537;DHT22;4306;50.210;10.628;2023-07-13T00:04:48;20.70;88.70
8537;DHT22;4306;50.210;10.628;2023-07-13T00:07:17;20.60;88.60
8537;DHT22;4306;50.210;10.628;2023-07-13T00:09:45;20.60;87.80
8537;DHT22;4306;50.210;10.628;2023-07-13T00:12:23;20.60;86.40
8537;DHT22;4306;50.210;10.628;2023-07-13T00:14:50;20.60;85.90
8537;DHT22;4306;50.210;10.628;2023-07-13T00:17:17;20.60;85.40
8537;DHT22;4306;50.210;10.628;2023-07-13T00:19:44;20.60;85.00
8537;DHT22;4306;50.210;10.628;2023-07-13T00:22:11;20.60;84.60
8537;DHT22;4306;50.210;10.628;2023-07-13T00:24:39;20.60;84.30
8537;DHT22;4306;50.210;10.628;2023-07-13T00:27:07;20.60;84.30
8537;DHT22;4306;50.210;10.628;2023-07-13T00:29:34;20.50;84.20
8537;DHT22;4306;50.210;10.628;2023-07-13T00:32:02;20.50;84.20
8537;DHT22;4306;50.210;10.628;2023-07-13T00:34:29;20.50;84.30
8537;DHT22;4306;50.210;10.628;2023-07-13T00:36:56;20.40;84.10
8537;DHT22;4306;50.210;10.628;2023-07-13T00:39:24;20.40;84.50
8537;DHT22;4306;50.210;10.628;2023-07-13T00:41:52;20.40;84.60
8537;DHT22;4306;50.210;10.628;2023-07-13T00:44:19;20.30;84.30
8537;DHT22;4306;50.210;10.628;2023-07-13T00:46:48;20.30;84.40
8537;DHT22;4306;50.210;10.628;2023-07-13T00:49:18;20.20;84.30
8537;DHT22;4306;50.210;10.628;2023-07-13T00:51:49;20.20;84.40
8537;DHT22;4306;50.210;10.628;2023-07-13T00:54:20;20.20;85.10
8537;DHT22;4306;50.210;10.628;2023-07-13T00:56:51;20.10;84.50
8537;DHT22;4306;50.210;10.628;2023-07-13T00:59:21;20.00;84.50
8537;DHT22;4306;50.210;10.628;2023-07-13T01:01:48;19.90;85.30
8537;DHT22;4306;50.210;10.628;2023-07-13T01:04:15;19.90;84.90
8537;DHT22;4306;50.210;10.628;2023-07-13T01:06:43;19.90;84.70
8537;DHT22;4306;50.210;10.628;2023-07-13T01:09:10;19.90;84.80
8537;DHT22;4306;50.210;10.628;2023-07-13T01:11:38;19.80;84.80
8537;DHT22;4306;50.210;10.628;2023-07-13T01:14:05;19.80;84.50
8537;DHT22;4306;50.210;10.628;2023-07-13T01:16:35;19.80;84.40
8537;DHT22;4306;50.210;10.628;2023-07-13T01:19:09;19.80;84.10
8537;DHT22;4306;50.210;10.628;2023-07-13T01:21:39;19.70;84.10
8537;DHT22;4306;50.210;10.628;2023-07-13T01:24:08;19.50;84.50
8537;DHT22;4306;50.210;10.628;2023-07-13T01:26:35;19.50;84.40
8537;DHT22;4306;50.210;10.628;2023-07-13T01:29:02;19.60;84.20
8537;DHT22;4306;50.210;10.628;2023-07-13T01:31:29;19.60;84.00
8537;DHT22;4306;50.210;10.628;2023-07-13T01:33:56;19.60;84.60
8537;DHT22;4306;50.210;10.628;2023-07-13T01:36:23;19.50;83.70
8537;DHT22;4306;50.210;10.628;2023-07-13T01:38:51;19.50;83.70
8537;DHT22;4306;50.210;10.628;2023-07-13T01:41:18;19.40;84.30
8537;DHT22;4306;50.210;10.628;2023-07-13T01:43:45;19.40;84.20
8537;DHT22;4306;50.210;10.628;2023-07-13T01:46:12;19.30;84.00
8537;DHT22;4306;50.210;10.628;2023-07-13T01:48:39;19.40;84.30
8537;DHT22;4306;50.210;10.628;2023-07-13T01:51:06;19.30;84.20
8537;DHT22;4306;50.210;10.628;2023-07-13T01:53:32;19.30;84.50
8537;DHT22;4306;50.210;10.628;2023-07-13T01:56:01;19.20;85.80
8537;DHT22;4306;50.210;10.628;2023-07-13T01:58:27;19.00;85.60
8537;DHT22;4306;50.210;10.628;2023-07-13T02:00:54;18.90;85.80
8537;DHT22;4306;50.210;10.628;2023-07-13T02:03:21;18.80;86.20
8537;DHT22;4306;50.210;10.628;2023-07-13T02:05:48;18.80;86.10
8537;DHT22;4306;50.210;10.628;2023-07-13T02:08:15;18.80;86.30
8537;DHT22;4306;50.210;10.628;2023-07-13T02:10:41;18.80;86.30
8537;DHT22;4306;50.210;10.628;2023-07-13T02:13:10;18.80;87.00
8537;DHT22;4306;50.210;10.628;2023-07-13T02:15:38;18.80;87.50
8537;DHT22;4306;50.210;10.628;2023-07-13T02:18:06;18.70;88.50
8537;DHT22;4306;50.210;10.628;2023-07-13T02:20:33;18.70;87.50
8537;DHT22;4306;50.210;10.628;2023-07-13T02:23:00;18.60;87.40
8537;DHT22;4306;50.210;10.628;2023-07-13T02:25:27;18.60;87.80
8537;DHT22;4306;50.210;10.628;2023-07-13T02:27:54;18.70;87.40
8537;DHT22;4306;50.210;10.628;2023-07-13T02:30:22;18.70;87.20
8537;DHT22;4306;50.210;10.628;2023-07-13T02:32:50;18.60;87.40
8537;DHT22;4306;50.210;10.628;2023-07-13T02:35:17;18.70;87.00
8537;DHT22;4306;50.210;10.628;2023-07-13T02:37:44;18.60;87.70
8537;DHT22;4306;50.210;10.628;2023-07-13T02:40:11;18.70;87.20
8537;DHT22;4306;50.210;10.628;2023-07-13T02:42:38;18.70;87.50
8537;DHT22;4306;50.210;10.628;2023-07-13T02:45:05;18.60;88.20
8537;DHT22;4306;50.210;10.628;2023-07-13T02:47:34;18.60;88.20
8537;DHT22;4306;50.210;10.628;2023-07-13T02:50:02;18.60;88.00
8537;DHT22;4306;50.210;10.628;2023-07-13T02:52:29;18.60;88.00
8537;DHT22;4306;50.210;10.628;2023-07-13T02:54:55;18.50;88.20
8537;DHT22;4306;50.210;10.628;2023-07-13T02:57:22;18.40;87.90
8537;DHT22;4306;50.210;10.628;2023-07-13T02:59:49;18.40;88.60
8537;DHT22;4306;50.210;10.628;2023-07-13T03:02:16;18.40;87.90
8537;DHT22;4306;50.210;10.628;2023-07-13T03:04:44;18.20;87.80
8537;DHT22;4306;50.210;10.628;2023-07-13T03:07:11;18.10;87.30
8537;DHT22;4306;50.210;10.628;2023-07-13T03:09:39;18.10;87.70
8537;DHT22;4306;50.210;10.628;2023-07-13T03:12:07;18.10;88.00
8537;DHT22;4306;50.210;10.628;2023-07-13T03:14:34;18.00;88.20
8537;DHT22;4306;50.210;10.628;2023-07-13T03:17:01;18.00;88.10
8537;DHT22;4306;50.210;10.628;2023-07-13T03:19:28;17.90;88.10
8537;DHT22;4306;50.210;10.628;2023-07-13T03:21:56;17.80;88.40
8537;DHT22;4306;50.210;10.628;2023-07-13T03:24:23;17.70;87.80
8537;DHT22;4306;50.210;10.628;2023-07-13T03:26:51;17.70;88.00
8537;DHT22;4306;50.210;10.628;2023-07-13T03:29:18;17.70;88.00
8537;DHT22;4306;50.210;10.628;2023-07-13T03:31:45;17.60;89.30
8537;DHT22;4306;50.210;10.628;2023-07-13T03:34:12;17.40;90.00
8537;DHT22;4306;50.210;10.628;2023-07-13T03:36:38;17.20;90.40
8537;DHT22;4306;50.210;10.628;2023-07-13T03:39:08;17.10;91.30
8537;DHT22;4306;50.210;10.628;2023-07-13T03:41:35;16.70;91.60
8537;DHT22;4306;50.210;10.628;2023-07-13T03:44:02;16.70;91.70
8537;DHT22;4306;50.210;10.628;2023-07-13T03:46:29;16.70;91.60
8537;DHT22;4306;50.210;10.628;2023-07-13T03:48:56;16.70;91.50
8537;DHT22;4306;50.210;10.628;2023-07-13T03:51:23;16.70;91.90
8537;DHT22;4306;50.210;10.628;2023-07-13T03:53:50;16.70;91.90
8537;DHT22;4306;50.210;10.628;2023-07-13T03:56:19;16.70;91.50
8537;DHT22;4306;50.210;10.628;2023-07-13T03:58:47;16.80;91.80
8537;DHT22;4306;50.210;10.628;2023-07-13T04:01:16;16.80;91.60
8537;DHT22;4306;50.210;10.628;2023-07-13T04:03:43;16.80;91.70
8537;DHT22;4306;50.210;10.628;2023-07-13T04:06:15;16.80;91.90
8537;DHT22;4306;50.210;10.628;2023-07-13T04:08:47;16.80;92.00
8537;DHT22;4306;50.210;10.628;2023-07-13T04:11:14;16.80;91.90
8537;DHT22;4306;50.210;10.628;2023-07-13T04:13:43;16.80;91.90
8537;DHT22;4306;50.210;10.628;2023-07-13T04:16:10;16.80;92.20
8537;DHT22;4306;50.210;10.628;2023-07-13T04:18:37;16.80;92.20
8537;DHT22;4306;50.210;10.628;2023-07-13T04:21:04;16.80;92.40
8537;DHT22;4306;50.210;10.628;2023-07-13T04:23:30;16.80;92.50
8537;DHT22;4306;50.210;10.628;2023-07-13T04:25:57;16.50;93.10
8537;DHT22;4306;50.210;10.628;2023-07-13T04:28:25;16.60;92.70
8537;DHT22;4306;50.210;10.628;2023-07-13T04:30:54;16.60;92.70
8537;DHT22;4306;50.210;10.628;2023-07-13T04:33:22;16.60;92.70
8537;DHT22;4306;50.210;10.628;2023-07-13T04:35:49;16.60;92.80
8537;DHT22;4306;50.210;10.628;2023-07-13T04:38:20;16.60;92.90
8537;DHT22;4306;50.210;10.628;2023-07-13T04:40:47;16.70;93.10
8537;DHT22;4306;50.210;10.628;2023-07-13T04:43:14;16.60;93.20
8537;DHT22;4306;50.210;10.628;2023-07-13T04:45:41;16.60;93.30
8537;DHT22;4306;50.210;10.628;2023-07-13T04:48:10;16.70;93.60
8537;DHT22;4306;50.210;10.628;2023-07-13T04:50:37;16.60;93.90
8537;DHT22;4306;50.210;10.628;2023-07-13T04:53:04;16.60;94.60
8537;DHT22;4306;50.210;10.628;2023-07-13T04:55:31;16.60;94.60
8537;DHT22;4306;50.210;10.628;2023-07-13T04:57:58;16.60;95.00
8537;DHT22;4306;50.210;10.628;2023-07-13T05:00:26;16.60;95.10
8537;DHT22;4306;50.210;10.628;2023-07-13T05:02:54;16.70;94.70
8537;DHT22;4306;50.210;10.628;2023-07-13T05:05:23;16.80;94.80
8537;DHT22;4306;50.210;10.628;2023-07-13T05:07:50;16.90;94.50
8537;DHT22;4306;50.210;10.628;2023-07-13T05:10:17;17.00;94.70
8537;DHT22;4306;50.210;10.628;2023-07-13T05:12:43;17.10;94.30
8537;DHT22;4306;50.210;10.628;2023-07-13T05:15:11;16.80;94.40
8537;DHT22;4306;50.210;10.628;2023-07-13T05:17:38;17.40;94.60
8537;DHT22;4306;50.210;10.628;2023-07-13T05:20:07;17.50;94.30
8537;DHT22;4306;50.210;10.628;2023-07-13T05:22:35;17.60;94.30
8537;DHT22;4306;50.210;10.628;2023-07-13T05:25:04;17.70;94.00
8537;DHT22;4306;50.210;10.628;2023-07-13T05:27:31;17.90;94.10
8537;DHT22;4306;50.210;10.628;2023-07-13T05:29:58;18.00;93.70
8537;DHT22;4306;50.210;10.628;2023-07-13T05:32:24;18.10;93.30
8537;DHT22;4306;50.210;10.628;2023-07-13T05:34:51;18.10;93.10
8537;DHT22;4306;50.210;10.628;2023-07-13T05:37:18;18.10;92.00
8537;DHT22;4306;50.210;10.628;2023-07-13T05:39:47;18.20;92.20
8537;DHT22;4306;50.210;10.628;2023-07-13T05:42:13;18.30;91.90
8537;DHT22;4306;50.210;10.628;2023-07-13T05:44:40;18.40;91.70
8537;DHT22;4306;50.210;10.628;2023-07-13T05:47:07;18.40;90.90
8537;DHT22;4306;50.210;10.628;2023-07-13T05:49:34;18.40;91.00
8537;DHT22;4306;50.210;10.628;2023-07-13T05:52:01;18.50;91.00
8537;DHT22;4306;50.210;10.628;2023-07-13T05:54:28;18.60;91.10
8537;DHT22;4306;50.210;10.628;2023-07-13T05:56:56;18.70;91.10
8537;DHT22;4306;50.210;10.628;2023-07-13T05:59:23;18.80;91.00
8537;DHT22;4306;50.210;10.628;2023-07-13T06:01:51;18.80;91.20
8537;DHT22;4306;50.210;10.628;2023-07-13T06:04:18;18.90;91.70
8537;DHT22;4306;50.210;10.628;2023-07-13T06:06:45;19.00;91.50
8537;DHT22;4306;50.210;10.628;2023-07-13T06:09:12;19.10;91.50
8537;DHT22;4306;50.210;10.628;2023-07-13T06:11:39;19.30;91.60
8537;DHT22;4306;50.210;10.628;2023-07-13T06:14:07;19.50;91.30
8537;DHT22;4306;50.210;10.628;2023-07-13T06:16:34;19.50;90.70
8537;DHT22;4306;50.210;10.628;2023-07-13T06:19:01;19.60;90.20
8537;DHT22;4306;50.210;10.628;2023-07-13T06:21:28;19.90;90.60
8537;DHT22;4306;50.210;10.628;2023-07-13T06:23:55;20.40;86.90
8537;DHT22;4306;50.210;10.628;2023-07-13T06:26:22;20.80;86.50
8537;DHT22;4306;50.210;10.628;2023-07-13T06:28:49;21.10;85.40
8537;DHT22;4306;50.210;10.628;2023-07-13T06:31:17;21.20;85.20
8537;DHT22;4306;50.210;10.628;2023-07-13T06:33:44;21.10;84.40
8537;DHT22;4306;50.210;10.628;2023-07-13T06:36:11;21.00;84.20
8537;DHT22;4306;50.210;10.628;2023-07-13T06:38:38;20.80;84.90
8537;DHT22;4306;50.210;10.628;2023-07-13T06:41:06;20.40;85.50
8537;DHT22;4306;50.210;10.628;2023-07-13T06:43:34;20.30;86.10
8537;DHT22;4306;50.210;10.628;2023-07-13T06:46:01;20.30;85.70
8537;DHT22;4306;50.210;10.628;2023-07-13T06:48:29;20.00;86.70
8537;DHT22;4306;50.210;10.628;2023-07-13T06:50:56;19.80;87.20
8537;DHT22;4306;50.210;10.628;2023-07-13T06:53:23;19.80;87.10
8537;DHT22;4306;50.210;10.628;2023-07-13T06:55:50;19.60;87.90
8537;DHT22;4306;50.210;10.628;2023-07-13T06:58:18;19.80;87.70
8537;DHT22;4306;50.210;10.628;2023-07-13T07:00:45;19.90;87.70
8537;DHT22;4306;50.210;10.628;2023-07-13T07:03:12;20.10;87.20
8537;DHT22;4306;50.210;10.628;2023-07-13T07:05:40;20.20;86.50
8537;DHT22;4306;50.210;10.628;2023-07-13T07:08:07;20.20;86.40
8537;DHT22;4306;50.210;10.628;2023-07-13T07:10:35;20.20;86.50
8537;DHT22;4306;50.210;10.628;2023-07-13T07:13:02;20.20;86.30
8537;DHT22;4306;50.210;10.628;2023-07-13T07:15:30;20.30;86.20
8537;DHT22;4306;50.210;10.628;2023-07-13T07:17:57;20.40;86.00
8537;DHT22;4306;50.210;10.628;2023-07-13T07:20:23;20.40;85.90
8537;DHT22;4306;50.210;10.628;2023-07-13T07:22:52;20.50;82.60
8537;DHT22;4306;50.210;10.628;2023-07-13T07:25:19;20.40;81.50
8537;DHT22;4306;50.210;10.628;2023-07-13T07:27:46;20.60;79.70
8537;DHT22;4306;50.210;10.628;2023-07-13T07:30:13;20.80;81.10
8537;DHT22;4306;50.210;10.628;2023-07-13T07:32:40;20.90;79.50
8537;DHT22;4306;50.210;10.628;2023-07-13T07:35:08;21.10;80.10
8537;DHT22;4306;50.210;10.628;2023-07-13T07:37:35;21.20;79.10
8537;DHT22;4306;50.210;10.628;2023-07-13T07:40:05;21.40;76.20
8537;DHT22;4306;50.210;10.628;2023-07-13T07:42:32;21.40;74.90
8537;DHT22;4306;50.210;10.628;2023-07-13T07:44:59;21.50;74.40
8537;DHT22;4306;50.210;10.628;2023-07-13T07:47:26;21.60;74.90
8537;DHT22;4306;50.210;10.628;2023-07-13T07:49:53;21.60;69.00
8537;DHT22;4306;50.210;10.628;2023-07-13T07:52:20;21.70;67.30
8537;DHT22;4306;50.210;10.628;2023-07-13T07:54:47;21.80;67.40
8537;DHT22;4306;50.210;10.628;2023-07-13T07:57:15;21.60;67.30
8537;DHT22;4306;50.210;10.628;2023-07-13T07:59:42;21.60;67.90
8537;DHT22;4306;50.210;10.628;2023-07-13T08:02:10;21.80;69.20
8537;DHT22;4306;50.210;10.628;2023-07-13T08:04:37;21.90;66.90
8537;DHT22;4306;50.210;10.628;2023-07-13T08:07:04;22.10;66.00
8537;DHT22;4306;50.210;10.628;2023-07-13T08:09:32;22.20;64.80
8537;DHT22;4306;50.210;10.628;2023-07-13T08:11:59;22.20;64.60
8537;DHT22;4306;50.210;10.628;2023-07-13T08:14:27;22.20;65.10
8537;DHT22;4306;50.210;10.628;2023-07-13T08:16:54;22.40;66.40
8537;DHT22;4306;50.210;10.628;2023-07-13T08:19:21;22.40;65.80
8537;DHT22;4306;50.210;10.628;2023-07-13T08:21:47;22.40;65.00
8537;DHT22;4306;50.210;10.628;2023-07-13T08:24:14;22.40;63.20
8537;DHT22;4306;50.210;10.628;2023-07-13T08:26:44;22.30;62.70
8537;DHT22;4306;50.210;10.628;2023-07-13T08:29:10;22.40;60.90
8537;DHT22;4306;50.210;10.628;2023-07-13T08:31:39;22.30;57.80
8537;DHT22;4306;50.210;10.628;2023-07-13T08:34:05;21.70;56.80
8537;DHT22;4306;50.210;10.628;2023-07-13T08:36:32;22.00;58.60
8537;DHT22;4306;50.210;10.628;2023-07-13T08:38:59;21.70;58.40
8537;DHT22;4306;50.210;10.628;2023-07-13T08:41:26;21.50;59.30
8537;DHT22;4306;50.210;10.628;2023-07-13T08:43:56;21.60;59.70
8537;DHT22;4306;50.210;10.628;2023-07-13T08:46:26;21.80;58.70
8537;DHT22;4306;50.210;10.628;2023-07-13T08:48:58;21.80;58.70
8537;DHT22;4306;50.210;10.628;2023-07-13T08:51:38;22.00;59.90
8537;DHT22;4306;50.210;10.628;2023-07-13T08:54:17;22.20;60.00
8537;DHT22;4306;50.210;10.628;2023-07-13T08:56:46;22.40;59.80
8537;DHT22;4306;50.210;10.628;2023-07-13T08:59:16;22.50;58.90
8537;DHT22;4306;50.210;10.628;2023-07-13T09:01:56;22.50;56.70
8537;DHT22;4306;50.210;10.628;2023-07-13T09:04:29;22.30;57.30
8537;DHT22;4306;50.210;10.628;2023-07-13T09:07:03;22.30;57.90
8537;DHT22;4306;50.210;10.628;2023-07-13T09:09:40;22.40;59.20
8537;DHT22;4306;50.210;10.628;2023-07-13T09:12:14;22.20;57.80
8537;DHT22;4306;50.210;10.628;2023-07-13T09:14:45;22.20;58.60
8537;DHT22;4306;50.210;10.628;2023-07-13T09:17:17;22.10;58.10
8537;DHT22;4306;50.210;10.628;2023-07-13T09:19:50;22.00;58.90
8537;DHT22;4306;50.210;10.628;2023-07-13T09:22:21;22.10;59.50
8537;DHT22;4306;50.210;10.628;2023-07-13T09:24:54;22.20;59.70
8537;DHT22;4306;50.210;10.628;2023-07-13T09:27:23;22.20;58.50
8537;DHT22;4306;50.210;10.628;2023-07-13T09:29:57;22.40;60.20
8537;DHT22;4306;50.210;10.628;2023-07-13T09:32:27;22.60;59.90
8537;DHT22;4306;50.210;10.628;2023-07-13T09:34:56;22.60;60.80
8537;DHT22;4306;50.210;10.628;2023-07-13T09:37:29;22.60;59.00
8537;DHT22;4306;50.210;10.628;2023-07-13T09:39:58;22.60;60.70
8537;DHT22;4306;50.210;10.628;2023-07-13T09:42:26;22.90;60.70
8537;DHT22;4306;50.210;10.628;2023-07-13T09:44:55;22.60;59.00
8537;DHT22;4306;50.210;10.628;2023-07-13T09:47:24;22.50;59.60
8537;DHT22;4306;50.210;10.628;2023-07-13T09:49:58;22.80;59.30
8537;DHT22;4306;50.210;10.628;2023-07-13T09:52:26;22.80;58.20
8537;DHT22;4306;50.210;10.628;2023-07-13T09:54:54;23.00;59.50
8537;DHT22;4306;50.210;10.628;2023-07-13T09:57:26;23.20;58.50
8537;DHT22;4306;50.210;10.628;2023-07-13T09:59:54;23.30;58.80
8537;DHT22;4306;50.210;10.628;2023-07-13T10:02:26;23.50;59.20
8537;DHT22;4306;50.210;10.628;2023-07-13T10:05:00;23.50;57.70
8537;DHT22;4306;50.210;10.628;2023-07-13T10:07:29;23.30;56.40
8537;DHT22;4306;50.210;10.628;2023-07-13T10:09:57;23.30;57.30
8537;DHT22;4306;50.210;10.628;2023-07-13T10:12:27;23.10;56.40
8537;DHT22;4306;50.210;10.628;2023-07-13T10:14:56;23.20;55.50
8537;DHT22;4306;50.210;10.628;2023-07-13T10:17:29;22.90;56.20
8537;DHT22;4306;50.210;10.628;2023-07-13T10:20:00;23.10;56.90
8537;DHT22;4306;50.210;10.628;2023-07-13T10:22:36;23.30;56.60
8537;DHT22;4306;50.210;10.628;2023-07-13T10:25:13;23.30;56.50
8537;DHT22;4306;50.210;10.628;2023-07-13T10:27:41;23.60;55.60
8537;DHT22;4306;50.210;10.628;2023-07-13T10:30:13;23.70;55.00
8537;DHT22;4306;50.210;10.628;2023-07-13T10:32:42;23.30;54.50
8537;DHT22;4306;50.210;10.628;2023-07-13T10:35:13;23.60;55.20
8537;DHT22;4306;50.210;10.628;2023-07-13T10:37:45;23.40;54.80
8537;DHT22;4306;50.210;10.628;2023-07-13T10:40:15;23.60;55.50
8537;DHT22;4306;50.210;10.628;2023-07-13T10:42:47;23.60;56.40
8537;DHT22;4306;50.210;10.628;2023-07-13T10:45:17;23.80;56.50
8537;DHT22;4306;50.210;10.628;2023-07-13T10:47:45;23.90;55.70
8537;DHT22;4306;50.210;10.628;2023-07-13T10:50:18;23.40;55.80
8537;DHT22;4306;50.210;10.628;2023-07-13T10:52:47;23.50;56.00
8537;DHT22;4306;50.210;10.628;2023-07-13T10:55:36;23.80;56.20
8537;DHT22;4306;50.210;10.628;2023-07-13T10:58:12;24.10;55.80
8537;DHT22;4306;50.210;10.628;2023-07-13T11:00:51;24.20;54.40
8537;DHT22;4306;50.210;10.628;2023-07-13T11:03:22;23.80;51.90
8537;DHT22;4306;50.210;10.628;2023-07-13T11:05:51;24.00;54.90
8537;DHT22;4306;50.210;10.628;2023-07-13T11:08:33;24.40;55.60
8537;DHT22;4306;50.210;10.628;2023-07-13T11:11:02;24.80;56.20
8537;DHT22;4306;50.210;10.628;2023-07-13T11:13:54;25.10;55.80
8537;DHT22;4306;50.210;10.628;2023-07-13T11:16:50;25.40;54.90
8537;DHT22;4306;50.210;10.628;2023-07-13T11:19:50;25.30;53.40
8537;DHT22;4306;50.210;10.628;2023-07-13T11:22:25;25.00;53.10
8537;DHT22;4306;50.210;10.628;2023-07-13T11:25:02;25.20;54.50
8537;DHT22;4306;50.210;10.628;2023-07-13T11:27:50;25.20;53.80
8537;DHT22;4306;50.210;10.628;2023-07-13T11:30:32;24.90;53.00
8537;DHT22;4306;50.210;10.628;2023-07-13T11:33:10;25.20;54.10
8537;DHT22;4306;50.210;10.628;2023-07-13T11:35:49;25.40;53.90
8537;DHT22;4306;50.210;10.628;2023-07-13T11:38:20;25.50;53.30
8537;DHT22;4306;50.210;10.628;2023-07-13T11:40:48;25.10;53.50
8537;DHT22;4306;50.210;10.628;2023-07-13T11:43:17;25.10;55.10
8537;DHT22;4306;50.210;10.628;2023-07-13T11:45:44;25.40;54.20
8537;DHT22;4306;50.210;10.628;2023-07-13T11:48:22;25.70;53.20
8537;DHT22;4306;50.210;10.628;2023-07-13T11:50:51;25.80;52.70
8537;DHT22;4306;50.210;10.628;2023-07-13T11:53:21;25.30;54.50
8537;DHT22;4306;50.210;10.628;2023-07-13T11:55:48;25.20;53.40
8537;DHT22;4306;50.210;10.628;2023-07-13T11:58:21;25.50;54.40
8537;DHT22;4306;50.210;10.628;2023-07-13T12:00:49;25.70;53.40
8537;DHT22;4306;50.210;10.628;2023-07-13T12:03:21;25.60;52.40
8537;DHT22;4306;50.210;10.628;2023-07-13T12:05:57;25.40;52.90
8537;DHT22;4306;50.210;10.628;2023-07-13T12:08:27;25.30;53.10
8537;DHT22;4306;50.210;10.628;2023-07-13T12:10:59;25.00;52.70
8537;DHT22;4306;50.210;10.628;2023-07-13T12:13:27;24.90;53.70
8537;DHT22;4306;50.210;10.628;2023-07-13T12:15:54;25.00;54.00
8537;DHT22;4306;50.210;10.628;2023-07-13T12:18:29;24.60;54.20
8537;DHT22;4306;50.210;10.628;2023-07-13T12:20:58;24.50;55.20
8537;DHT22;4306;50.210;10.628;2023-07-13T12:23:29;24.40;55.70
8537;DHT22;4306;50.210;10.628;2023-07-13T12:25:58;24.20;54.90
8537;DHT22;4306;50.210;10.628;2023-07-13T12:28:32;24.10;55.00
8537;DHT22;4306;50.210;10.628;2023-07-13T12:31:00;24.60;55.60
8537;DHT22;4306;50.210;10.628;2023-07-13T12:33:28;25.00;56.10
8537;DHT22;4306;50.210;10.628;2023-07-13T12:35:55;25.30;54.30
8537;DHT22;4306;50.210;10.628;2023-07-13T12:38:25;25.50;52.30
8537;DHT22;4306;50.210;10.628;2023-07-13T12:40:53;25.00;53.10
8537;DHT22;4306;50.210;10.628;2023-07-13T12:43:20;25.10;52.80
8537;DHT22;4306;50.210;10.628;2023-07-13T12:45:58;24.30;53.30
8537;DHT22;4306;50.210;10.628;2023-07-13T12:48:25;24.10;54.50
8537;DHT22;4306;50.210;10.628;2023-07-13T12:50:54;24.60;54.60
8537;DHT22;4306;50.210;10.628;2023-07-13T12:53:23;24.60;54.30
8537;DHT22;4306;50.210;10.628;2023-07-13T12:55:55;25.00;55.10
8537;DHT22;4306;50.210;10.628;2023-07-13T12:58:29;25.00;53.70
8537;DHT22;4306;50.210;10.628;2023-07-13T13:00:58;24.70;53.80
8537;DHT22;4306;50.210;10.628;2023-07-13T13:03:30;24.50;54.30
8537;DHT22;4306;50.210;10.628;2023-07-13T13:06:02;24.90;54.30
8537;DHT22;4306;50.210;10.628;2023-07-13T13:08:30;25.20;54.40
8537;DHT22;4306;50.210;10.628;2023-07-13T13:10:59;25.40;54.20
8537;DHT22;4306;50.210;10.628;2023-07-13T13:13:26;25.50;54.20
8537;DHT22;4306;50.210;10.628;2023-07-13T13:15:52;25.60;53.20
8537;DHT22;4306;50.210;10.628;2023-07-13T13:18:22;25.80;52.20
8537;DHT22;4306;50.210;10.628;2023-07-13T13:20:49;25.90;52.50
8537;DHT22;4306;50.210;10.628;2023-07-13T13:23:18;26.10;51.40
8537;DHT22;4306;50.210;10.628;2023-07-13T13:25:46;25.80;51.30
8537;DHT22;4306;50.210;10.628;2023-07-13T13:28:16;26.10;52.10
8537;DHT22;4306;50.210;10.628;2023-07-13T13:30:44;26.50;51.70
8537;DHT22;4306;50.210;10.628;2023-07-13T13:33:12;25.90;51.30
8537;DHT22;4306;50.210;10.628;2023-07-13T13:35:40;26.20;51.50
8537;DHT22;4306;50.210;10.628;2023-07-13T13:38:11;26.30;51.80
8537;DHT22;4306;50.210;10.628;2023-07-13T13:40:40;26.20;51.30
8537;DHT22;4306;50.210;10.628;2023-07-13T13:43:26;26.20;51.30
8537;DHT22;4306;50.210;10.628;2023-07-13T13:45:56;26.40;51.80
8537;DHT22;4306;50.210;10.628;2023-07-13T13:48:28;26.10;51.50
8537;DHT22;4306;50.210;10.628;2023-07-13T13:50:56;25.20;52.00
8537;DHT22;4306;50.210;10.628;2023-07-13T13:53:23;25.40;53.60
8537;DHT22;4306;50.210;10.628;2023-07-13T13:55:50;25.40;53.30
8537;DHT22;4306;50.210;10.628;2023-07-13T13:58:18;25.90;53.50
8537;DHT22;4306;50.210;10.628;2023-07-13T14:00:47;26.20;52.90
8537;DHT22;4306;50.210;10.628;2023-07-13T14:03:15;26.10;53.10
8537;DHT22;4306;50.210;10.628;2023-07-13T14:05:44;26.50;53.10
8537;DHT22;4306;50.210;10.628;2023-07-13T14:08:13;26.60;51.80
8537;DHT22;4306;50.210;10.628;2023-07-13T14:10:41;26.60;51.70
8537;DHT22;4306;50.210;10.628;2023-07-13T14:13:15;26.70;52.00
8537;DHT22;4306;50.210;10.628;2023-07-13T14:15:45;26.80;52.20
8537;DHT22;4306;50.210;10.628;2023-07-13T14:18:13;26.90;51.80
8537;DHT22;4306;50.210;10.628;2023-07-13T14:20:43;26.80;51.80
8537;DHT22;4306;50.210;10.628;2023-07-13T14:23:10;26.60;51.80
8537;DHT22;4306;50.210;10.628;2023-07-13T14:25:37;26.60;51.80
8537;DHT22;4306;50.210;10.628;2023-07-13T14:28:17;26.10;51.60
8537;DHT22;4306;50.210;10.628;2023-07-13T14:30:47;26.00;52.00
8537;DHT22;4306;50.210;10.628;2023-07-13T14:33:14;26.10;51.50
8537;DHT22;4306;50.210;10.628;2023-07-13T14:35:40;26.10;52.60
8537;DHT22;4306;50.210;10.628;2023-07-13T14:38:10;26.20;51.60
8537;DHT22;4306;50.210;10.628;2023-07-13T14:40:39;26.40;50.80
8537;DHT22;4306;50.210;10.628;2023-07-13T14:43:09;26.60;51.20
8537;DHT22;4306;50.210;10.628;2023-07-13T14:45:39;26.70;50.80
8537;DHT22;4306;50.210;10.628;2023-07-13T14:48:14;26.40;49.70
8537;DHT22;4306;50.210;10.628;2023-07-13T14:50:41;26.10;50.50
8537;DHT22;4306;50.210;10.628;2023-07-13T14:53:10;26.10;51.70
8537;DHT22;4306;50.210;10.628;2023-07-13T14:55:40;25.10;51.80
8537;DHT22;4306;50.210;10.628;2023-07-13T14:58:08;25.00;51.90
8537;DHT22;4306;50.210;10.628;2023-07-13T15:00:35;25.60;51.40
8537;DHT22;4306;50.210;10.628;2023-07-13T15:03:04;25.80;51.10
8537;DHT22;4306;50.210;10.628;2023-07-13T15:05:33;25.30;51.10
8537;DHT22;4306;50.210;10.628;2023-07-13T15:08:01;25.10;51.90
8537;DHT22;4306;50.210;10.628;2023-07-13T15:10:31;25.50;51.30
8537;DHT22;4306;50.210;10.628;2023-07-13T15:13:13;25.70;50.80
8537;DHT22;4306;50.210;10.628;2023-07-13T15:15:43;25.80;51.00
8537;DHT22;4306;50.210;10.628;2023-07-13T15:18:12;25.30;51.30
8537;DHT22;4306;50.210;10.628;2023-07-13T15:20:45;25.00;51.50
8537;DHT22;4306;50.210;10.628;2023-07-13T15:23:13;24.70;52.20
8537;DHT22;4306;50.210;10.628;2023-07-13T15:25:41;24.70;51.70
8537;DHT22;4306;50.210;10.628;2023-07-13T15:28:09;25.00;52.40
8537;DHT22;4306;50.210;10.628;2023-07-13T15:30:40;25.30;52.50
8537;DHT22;4306;50.210;10.628;2023-07-13T15:33:12;25.40;51.10
8537;DHT22;4306;50.210;10.628;2023-07-13T15:35:40;25.40;51.70
8537;DHT22;4306;50.210;10.628;2023-07-13T15:38:16;25.50;52.10
8537;DHT22;4306;50.210;10.628;2023-07-13T15:40:43;25.70;51.20
8537;DHT22;4306;50.210;10.628;2023-07-13T15:43:11;25.90;51.80
8537;DHT22;4306;50.210;10.628;2023-07-13T15:45:38;26.10;51.10
8537;DHT22;4306;50.210;10.628;2023-07-13T15:48:13;26.20;51.20
8537;DHT22;4306;50.210;10.628;2023-07-13T15:50:43;26.40;51.80
8537;DHT22;4306;50.210;10.628;2023-07-13T15:53:10;26.40;51.40
8537;DHT22;4306;50.210;10.628;2023-07-13T15:55:39;26.40;50.30
8537;DHT22;4306;50.210;10.628;2023-07-13T15:58:11;25.00;52.50